createdAt,value
2019-02-07T00:02:19.106Z,100564.72
2019-02-07T00:04:47.479Z,100566.75
2019-02-07T00:07:15.863Z,100569.03
2019-02-07T00:09:44.386Z,100565.43
2019-02-07T00:12:13.339Z,100562.78
2019-02-07T00:14:41.726Z,100559.56
2019-02-07T00:17:10.336Z,100556.80
2019-02-07T00:19:38.781Z,100541.08
2019-02-07T00:22:07.845Z,100544.66
2019-02-07T00:24:42.935Z,100536.58
2019-02-07T00:27:07.549Z,100549.44
2019-02-07T00:29:35.988Z,100554.11
2019-02-07T00:32:04.435Z,100538.97
2019-02-07T00:34:32.838Z,100536.23
2019-02-07T00:37:01.586Z,100533.26
2019-02-07T00:39:30.581Z,100535.64
2019-02-07T00:41:58.935Z,100529.84
2019-02-07T00:44:27.269Z,100527.56
2019-02-07T00:46:55.614Z,100519.67
2019-02-07T00:49:23.974Z,100518.22
2019-02-07T00:51:52.461Z,100515.89
2019-02-07T00:54:20.832Z,100505.84
2019-02-07T00:56:49.207Z,100509.91
2019-02-07T00:59:17.575Z,100511.97
2019-02-07T01:01:45.956Z,100507.52
2019-02-07T01:04:14.374Z,100505.10
2019-02-07T01:06:42.719Z,100504.27
2019-02-07T01:09:12.311Z,100494.03
2019-02-07T01:11:40.765Z,100498.01
2019-02-07T01:14:09.564Z,100492.27
2019-02-07T01:16:37.962Z,100494.57
2019-02-07T01:19:06.377Z,100491.08
2019-02-07T01:21:35.690Z,100484.36
2019-02-07T01:24:04.398Z,100483.78
2019-02-07T01:26:32.733Z,100478.25
2019-02-07T01:29:01.091Z,100473.91
2019-02-07T01:31:29.422Z,100479.32
2019-02-07T01:33:57.844Z,100474.55
2019-02-07T01:36:26.207Z,100472.27
2019-02-07T01:38:54.571Z,100459.67
2019-02-07T01:41:23.040Z,100458.83
2019-02-07T01:43:51.544Z,100455.13
2019-02-07T01:46:19.883Z,100446.47
2019-02-07T01:48:48.257Z,100447.70
2019-02-07T01:51:16.629Z,100445.76
2019-02-07T01:53:44.976Z,100445.64
2019-02-07T01:56:13.405Z,100434.63
2019-02-07T01:58:41.735Z,100437.50
2019-02-07T02:01:10.672Z,100426.94
2019-02-07T02:03:39.074Z,100424.07
2019-02-07T02:06:07.544Z,100421.66
2019-02-07T02:08:35.928Z,100416.41
2019-02-07T02:11:04.458Z,100416.99
2019-02-07T02:13:33.418Z,100418.52
2019-02-07T02:16:01.834Z,100416.03
2019-02-07T02:18:30.288Z,100416.14
2019-02-07T02:20:58.656Z,100422.68
2019-02-07T02:23:26.990Z,100420.10
2019-02-07T02:25:55.398Z,100418.95
2019-02-07T02:28:24.429Z,100415.95
2019-02-07T02:30:52.864Z,100414.02
2019-02-07T02:33:21.358Z,100401.11
2019-02-07T02:35:50.224Z,100401.34
2019-02-07T02:38:19.089Z,100382.41
2019-02-07T02:40:47.452Z,100390.45
2019-02-07T02:43:15.861Z,100390.36
2019-02-07T02:45:44.484Z,100381.25
2019-02-07T02:48:13.070Z,100373.21
2019-02-07T02:50:41.401Z,100376.56
2019-02-07T02:53:10.178Z,100359.92
2019-02-07T02:55:40.525Z,100356.31
2019-02-07T02:58:09.196Z,100353.66
2019-02-07T03:00:38.365Z,100351.88
2019-02-07T03:03:09.705Z,100350.05
2019-02-07T03:05:41.878Z,100340.06
2019-02-07T03:08:13.073Z,100335.63
2019-02-07T03:10:45.153Z,100324.80
2019-02-07T03:13:15.131Z,100317.41
2019-02-07T03:15:49.697Z,100312.27
2019-02-07T03:18:18.615Z,100310.86
2019-02-07T03:20:49.597Z,100302.63
2019-02-07T03:23:20.561Z,100298.31
2019-02-07T03:25:50.285Z,100301.63
2019-02-07T03:28:22.254Z,100299.38
2019-02-07T03:30:53.255Z,100292.91
2019-02-07T03:33:24.415Z,100303.84
2019-02-07T03:35:54.151Z,100299.26
2019-02-07T03:38:25.348Z,100291.91
2019-02-07T03:40:56.518Z,100303.52
2019-02-07T03:43:27.261Z,100307.20
2019-02-07T03:46:02.864Z,100302.10
2019-02-07T03:48:33.212Z,100294.81
2019-02-07T03:51:04.711Z,100294.33
2019-02-07T03:53:36.822Z,100299.48
2019-02-07T03:56:07.072Z,100287.16
2019-02-07T03:58:38.189Z,100285.00
2019-02-07T04:01:07.326Z,100285.63
2019-02-07T04:03:39.307Z,100282.98
2019-02-07T04:06:11.850Z,100274.22
2019-02-07T04:08:42.687Z,100263.08
2019-02-07T04:11:14.081Z,100255.05
2019-02-07T04:13:44.244Z,100258.89
2019-02-07T04:16:15.384Z,100254.05
2019-02-07T04:18:47.110Z,100253.39
2019-02-07T04:21:20.171Z,100234.29
2019-02-07T04:23:52.076Z,100226.59
2019-02-07T04:26:24.115Z,100227.22
2019-02-07T04:28:56.243Z,100227.44
2019-02-07T04:31:26.705Z,100223.41
2019-02-07T04:33:57.001Z,100219.38
2019-02-07T04:36:25.333Z,100220.28
2019-02-07T04:38:56.478Z,100217.63
2019-02-07T04:41:28.446Z,100222.93
2019-02-07T04:43:58.058Z,100228.81
2019-02-07T04:46:28.787Z,100219.39
2019-02-07T04:49:00.828Z,100214.08
2019-02-07T04:51:31.816Z,100207.42
2019-02-07T04:54:02.963Z,100223.23
2019-02-07T04:56:32.004Z,100208.23
2019-02-07T04:59:03.117Z,100201.56
2019-02-07T05:01:34.291Z,100210.63
2019-02-07T05:04:05.290Z,100198.88
2019-02-07T05:06:36.212Z,100204.23
2019-02-07T05:09:09.206Z,100204.66
2019-02-07T05:11:40.196Z,100184.21
2019-02-07T05:14:09.703Z,100190.22
2019-02-07T05:16:43.657Z,100193.25
2019-02-07T05:19:15.327Z,100196.63
2019-02-07T05:21:47.418Z,100189.06
2019-02-07T05:24:19.469Z,100187.48
2019-02-07T05:26:52.440Z,100190.78
2019-02-07T05:29:22.866Z,100188.13
2019-02-07T05:31:55.897Z,100182.11
2019-02-07T05:34:26.607Z,100181.31
2019-02-07T05:36:57.714Z,100173.84
2019-02-07T05:39:27.448Z,100170.95
2019-02-07T05:41:59.585Z,100169.61
2019-02-07T05:44:30.020Z,100167.52
2019-02-07T05:47:03.135Z,100169.84
2019-02-07T05:49:34.073Z,100166.66
2019-02-07T05:52:06.032Z,100174.59
2019-02-07T05:54:38.152Z,100164.08
2019-02-07T05:57:10.139Z,100163.59
2019-02-07T05:59:40.928Z,100158.20
2019-02-07T06:02:11.181Z,100159.91
2019-02-07T06:04:40.413Z,100159.00
2019-02-07T06:07:11.151Z,100151.43
2019-02-07T06:09:40.943Z,100152.06
2019-02-07T06:12:12.105Z,100154.34
2019-02-07T06:14:40.772Z,100147.73
2019-02-07T06:17:11.635Z,100150.84
2019-02-07T06:19:42.713Z,100140.84
2019-02-07T06:22:12.207Z,100144.12
2019-02-07T06:24:42.494Z,100133.28
2019-02-07T06:27:13.518Z,100138.69
2019-02-07T06:29:45.523Z,100131.50
2019-02-07T06:32:16.145Z,100134.67
2019-02-07T06:34:48.023Z,100139.30
2019-02-07T06:37:20.150Z,100136.31
2019-02-07T06:39:50.445Z,100147.22
2019-02-07T06:42:21.652Z,100145.64
2019-02-07T06:44:54.791Z,100145.87
2019-02-07T06:47:25.710Z,100140.50
2019-02-07T06:49:57.724Z,100122.72
2019-02-07T06:52:28.726Z,100133.84
2019-02-07T06:54:58.839Z,100133.78
2019-02-07T06:57:30.026Z,100121.03
2019-02-07T06:59:58.706Z,100113.81
2019-02-07T07:02:29.329Z,100118.13
2019-02-07T07:04:59.606Z,100107.95
2019-02-07T07:07:29.651Z,100122.57
2019-02-07T07:09:59.173Z,100125.42
2019-02-07T07:12:27.858Z,100111.70
2019-02-07T07:14:59.949Z,100118.95
2019-02-07T07:17:30.993Z,100113.91
2019-02-07T07:20:00.998Z,100122.12
2019-02-07T07:22:31.853Z,100115.72
2019-02-07T07:25:02.654Z,100114.91
2019-02-07T07:27:32.444Z,100121.45
2019-02-07T07:30:03.556Z,100115.33
2019-02-07T07:32:34.682Z,100109.41
2019-02-07T07:35:07.464Z,100104.03
2019-02-07T07:37:39.062Z,100102.30
2019-02-07T07:40:12.341Z,100093.23
2019-02-07T07:42:44.227Z,100099.24
2019-02-07T07:45:18.207Z,100098.91
2019-02-07T07:47:50.253Z,100097.17
2019-02-07T07:53:12.386Z,100105.73
2019-02-07T07:55:42.555Z,100100.79
2019-02-07T08:01:19.161Z,100094.37
2019-02-07T08:03:51.124Z,100088.34
2019-02-07T08:06:21.406Z,100095.14
2019-02-07T08:08:51.191Z,100094.50
2019-02-07T08:11:21.574Z,100086.73
2019-02-07T08:13:50.674Z,100093.69
2019-02-07T08:16:20.314Z,100091.87
2019-02-07T08:18:50.915Z,100095.13
2019-02-07T08:21:22.951Z,100087.81
2019-02-07T08:23:53.657Z,100092.64
2019-02-07T08:26:24.741Z,100093.55
2019-02-07T08:28:53.478Z,100086.00
2019-02-07T08:31:25.592Z,100081.25
2019-02-07T08:33:56.615Z,100079.55
2019-02-07T08:36:31.631Z,100074.74
2019-02-07T08:39:03.482Z,100080.64
2019-02-07T08:44:32.213Z,100077.73
2019-02-07T08:47:14.931Z,100061.84
2019-02-07T08:49:45.659Z,100057.91
2019-02-07T08:52:17.744Z,100065.77
2019-02-07T08:54:48.614Z,100061.65
2019-02-07T08:57:19.640Z,100053.52
2019-02-07T08:59:51.025Z,100053.36
2019-02-07T09:02:22.005Z,100042.17
2019-02-07T09:04:53.056Z,100044.97
2019-02-07T09:07:23.395Z,100042.59
2019-02-07T09:09:56.486Z,100041.23
2019-02-07T09:12:27.893Z,100036.75
2019-02-07T09:15:13.101Z,100031.05
2019-02-07T09:17:43.842Z,100035.02
2019-02-07T09:20:17.502Z,100035.30
2019-02-07T09:22:52.545Z,100031.17
2019-02-07T09:25:26.413Z,100038.30
2019-02-07T09:27:57.551Z,100044.80
2019-02-07T09:30:28.604Z,100050.37
2019-02-07T09:32:57.826Z,100044.81
2019-02-07T09:35:28.538Z,100053.64
2019-02-07T09:38:01.522Z,100066.77
2019-02-07T09:40:31.921Z,100055.58
2019-02-07T09:43:02.257Z,100054.66
2019-02-07T09:45:31.869Z,100050.43
2019-02-07T09:48:04.205Z,100049.84
2019-02-07T09:50:35.205Z,100045.16
2019-02-07T09:53:05.563Z,100046.66
2019-02-07T09:55:36.842Z,100042.95
2019-02-07T09:58:07.443Z,100035.65
2019-02-07T10:00:39.719Z,100025.80
2019-02-07T10:03:08.402Z,100033.09
2019-02-07T10:05:39.392Z,100038.55
2019-02-07T10:08:10.575Z,100025.20
2019-02-07T10:10:42.743Z,100028.53
2019-02-07T10:13:12.491Z,100031.17
2019-02-07T10:15:43.288Z,100015.70
2019-02-07T10:18:16.372Z,100016.75
2019-02-07T10:20:47.606Z,100010.70
2019-02-07T10:23:18.035Z,100006.06
2019-02-07T10:25:51.266Z,100012.86
2019-02-07T10:28:22.343Z,100010.97
2019-02-07T10:30:55.464Z,100005.41
2019-02-07T10:33:25.159Z,100005.41
2019-02-07T10:35:56.269Z,100015.12
2019-02-07T10:38:25.585Z,100017.83
2019-02-07T10:40:54.345Z,100021.67
2019-02-07T10:43:25.369Z,100018.31
2019-02-07T10:45:58.461Z,100021.11
2019-02-07T10:48:29.283Z,100024.48
2019-02-07T10:51:03.473Z,100019.72
2019-02-07T10:53:34.670Z,100023.30
2019-02-07T10:56:05.981Z,100025.25
2019-02-07T10:58:36.285Z,100019.36
2019-02-07T11:01:08.717Z,100011.55
2019-02-07T11:03:40.731Z,100017.34
2019-02-07T11:06:11.350Z,100021.66
2019-02-07T11:08:42.579Z,100015.76
2019-02-07T11:11:14.617Z,100011.39
2019-02-07T11:13:46.306Z,100010.41
2019-02-07T11:16:17.405Z,100001.26
2019-02-07T11:18:55.320Z,100000.20
2019-02-07T11:21:21.758Z,100000.91
2019-02-07T11:23:53.794Z,99994.30
2019-02-07T11:26:25.789Z,99993.30
2019-02-07T11:28:58.112Z,99986.86
2019-02-07T11:31:28.923Z,99978.02
2019-02-07T11:34:00.089Z,99975.95
2019-02-07T11:36:31.792Z,99977.98
2019-02-07T11:39:03.953Z,99978.98
2019-02-07T11:41:34.420Z,99972.66
2019-02-07T11:44:06.370Z,99972.00
2019-02-07T11:46:38.418Z,99960.61
2019-02-07T11:49:07.984Z,99967.25
2019-02-07T11:51:39.883Z,99962.87
2019-02-07T11:54:12.369Z,99963.33
2019-02-07T11:56:43.553Z,99956.18
2019-02-07T11:59:14.625Z,99946.23
2019-02-07T12:01:45.758Z,99950.39
2019-02-07T12:04:16.627Z,99950.81
2019-02-07T12:06:49.118Z,99939.24
2019-02-07T12:09:21.104Z,99945.80
2019-02-07T12:11:53.121Z,99939.86
2019-02-07T12:14:22.310Z,99936.55
2019-02-07T12:16:54.271Z,99929.48
2019-02-07T12:19:24.285Z,99950.16
2019-02-07T12:21:55.838Z,99955.72
2019-02-07T12:24:28.000Z,99951.19
2019-02-07T12:26:59.181Z,99955.84
2019-02-07T12:29:31.114Z,99956.38
2019-02-07T12:32:02.241Z,99939.24
2019-02-07T12:34:35.136Z,99938.41
2019-02-07T12:37:04.540Z,99936.62
2019-02-07T12:39:36.373Z,99942.60
2019-02-07T12:42:07.350Z,99939.41
2019-02-07T12:44:39.203Z,99938.88
2019-02-07T12:47:12.106Z,99935.96
2019-02-07T12:49:43.285Z,99924.47
2019-02-07T12:52:14.589Z,99924.44
2019-02-07T12:54:45.662Z,99926.38
2019-02-07T12:57:14.636Z,99920.41
2019-02-07T12:59:46.803Z,99917.25
2019-02-07T13:02:17.559Z,99910.53
2019-02-07T13:04:52.159Z,99905.55
2019-02-07T13:07:24.343Z,99910.92
2019-02-07T13:09:55.642Z,99900.53
2019-02-07T13:12:28.623Z,99904.52
2019-02-07T13:14:59.793Z,99901.53
2019-02-07T13:17:30.868Z,99889.95
2019-02-07T13:20:03.100Z,99888.84
2019-02-07T13:22:35.372Z,99890.05
2019-02-07T13:25:08.462Z,99896.88
2019-02-07T13:27:40.680Z,99895.87
2019-02-07T13:30:15.600Z,99894.37
2019-02-07T13:32:47.838Z,99896.70
2019-02-07T13:35:18.725Z,99904.98
2019-02-07T13:37:54.782Z,99914.28
2019-02-07T13:40:24.709Z,99913.31
2019-02-07T13:42:56.658Z,99912.80
2019-02-07T13:45:29.293Z,99919.91
2019-02-07T13:48:00.336Z,99918.13
2019-02-07T13:50:32.581Z,99922.30
2019-02-07T13:53:04.933Z,99936.43
2019-02-07T13:55:37.470Z,99937.10
2019-02-07T13:58:10.808Z,99927.95
2019-02-07T14:00:42.177Z,99932.59
2019-02-07T14:03:13.958Z,99937.59
2019-02-07T14:05:45.110Z,99944.59
2019-02-07T14:08:15.340Z,99945.39
2019-02-07T14:10:44.497Z,99942.41
2019-02-07T14:13:16.772Z,99934.93
2019-02-07T14:15:48.813Z,99947.90
2019-02-07T14:18:20.957Z,99945.91
2019-02-07T14:20:53.073Z,99946.39
2019-02-07T14:23:25.069Z,99952.20
2019-02-07T14:25:53.781Z,99951.88
2019-02-07T14:28:24.164Z,99957.55
2019-02-07T14:30:52.808Z,99948.06
2019-02-07T14:33:23.822Z,99945.74
2019-02-07T14:35:54.850Z,99949.05
2019-02-07T14:38:26.881Z,99952.75
2019-02-07T14:40:58.883Z,99953.38
2019-02-07T14:43:29.842Z,99958.04
2019-02-07T14:46:00.503Z,99958.22
2019-02-07T14:48:29.173Z,99953.23
2019-02-07T14:50:57.572Z,99957.87
2019-02-07T14:53:25.956Z,99955.70
2019-02-07T14:55:54.392Z,99953.23
2019-02-07T14:58:22.741Z,99954.22
2019-02-07T15:00:51.078Z,99960.85
2019-02-07T15:03:19.405Z,99964.87
2019-02-07T15:05:48.094Z,99967.69
2019-02-07T15:08:16.534Z,99949.55
2019-02-07T15:10:45.003Z,99940.59
2019-02-07T15:13:13.770Z,99942.09
2019-02-07T15:15:42.091Z,99948.72
2019-02-07T15:18:10.598Z,99956.36
2019-02-07T15:20:39.378Z,99943.23
2019-02-07T15:23:08.234Z,99948.89
2019-02-07T15:25:36.616Z,99956.03
2019-02-07T15:28:05.253Z,99953.39
2019-02-07T15:30:33.674Z,99947.41
2019-02-07T15:33:01.997Z,99960.70
2019-02-07T15:35:32.538Z,99955.55
2019-02-07T15:38:01.110Z,99949.73
2019-02-07T15:40:29.770Z,99952.23
2019-02-07T15:42:58.443Z,99945.23
2019-02-07T15:45:27.332Z,99942.73
2019-02-07T15:47:55.711Z,99956.89
2019-02-07T15:50:37.353Z,99962.03
2019-02-07T15:52:58.392Z,99954.72
2019-02-07T15:55:26.942Z,99948.58
2019-02-07T15:57:55.566Z,99951.06
2019-02-07T16:00:28.146Z,99950.72
2019-02-07T16:02:59.606Z,99950.41
2019-02-07T16:05:28.059Z,99946.09
2019-02-07T16:07:56.445Z,99954.70
2019-02-07T16:10:24.774Z,99961.04
2019-02-07T16:12:53.164Z,99967.17
2019-02-07T16:15:21.675Z,99968.16
2019-02-07T16:17:50.066Z,99985.11
2019-02-07T16:20:20.358Z,99979.27
2019-02-07T16:22:48.790Z,99984.08
2019-02-07T16:25:17.441Z,99980.59
2019-02-07T16:27:45.838Z,99985.08
2019-02-07T16:30:17.015Z,99988.23
2019-02-07T16:32:45.461Z,99995.67
2019-02-07T16:35:16.518Z,99998.97
2019-02-07T16:37:45.040Z,100012.42
2019-02-07T16:40:15.510Z,100020.39
2019-02-07T16:42:44.739Z,100025.53
2019-02-07T16:45:18.300Z,100029.68
2019-02-07T16:47:46.646Z,100023.70
2019-02-07T16:50:17.862Z,100027.65
2019-02-07T16:52:46.276Z,100030.30
2019-02-07T16:55:14.638Z,100029.68
2019-02-07T16:57:43.157Z,100031.14
2019-02-07T17:00:15.480Z,100032.01
2019-02-07T17:02:44.193Z,100035.06
2019-02-07T17:05:13.774Z,100038.34
2019-02-07T17:07:42.271Z,100039.11
2019-02-07T17:10:14.863Z,100039.27
2019-02-07T17:12:43.430Z,100035.89
2019-02-07T17:15:16.910Z,100044.50
2019-02-07T17:17:45.523Z,100037.38
2019-02-07T17:20:16.765Z,100050.15
2019-02-07T17:22:47.489Z,100057.44
2019-02-07T17:25:15.915Z,100059.04
2019-02-07T17:27:44.419Z,100053.14
2019-02-07T17:30:17.597Z,100048.06
2019-02-07T17:32:46.329Z,100054.64
2019-02-07T17:35:15.867Z,100062.38
2019-02-07T17:37:44.507Z,100058.86
2019-02-07T17:40:17.361Z,100071.14
2019-02-07T17:42:46.125Z,100056.25
2019-02-07T17:45:18.183Z,100061.22
2019-02-07T17:47:47.074Z,100056.39
2019-02-07T17:50:20.546Z,100062.95
2019-02-07T17:52:50.396Z,100066.86
2019-02-07T17:55:21.251Z,100071.32
2019-02-07T17:57:49.621Z,100061.31
2019-02-07T18:00:24.469Z,100067.16
2019-02-07T18:02:52.979Z,100060.88
2019-02-07T18:05:21.390Z,100063.47
2019-02-07T18:07:49.814Z,100056.14
2019-02-07T18:10:18.382Z,100060.30
2019-02-07T18:12:46.860Z,100063.96
2019-02-07T18:15:15.248Z,100066.66
2019-02-07T18:17:44.074Z,100065.96
2019-02-07T18:20:19.736Z,100074.89
2019-02-07T18:22:48.206Z,100073.80
2019-02-07T18:25:17.335Z,100071.50
2019-02-07T18:27:45.817Z,100070.09
2019-02-07T18:30:17.958Z,100077.20
2019-02-07T18:32:46.815Z,100074.47
2019-02-07T18:35:16.895Z,100073.75
2019-02-07T18:37:45.506Z,100079.78
2019-02-07T18:40:17.755Z,100080.34
2019-02-07T18:42:46.147Z,100091.63
2019-02-07T18:45:16.026Z,100086.82
2019-02-07T18:47:44.719Z,100087.00
2019-02-07T18:50:18.158Z,100097.97
2019-02-07T18:52:46.526Z,100097.97
2019-02-07T18:55:15.108Z,100098.85
2019-02-07T18:57:43.524Z,100099.79
2019-02-07T19:00:17.028Z,100109.96
2019-02-07T19:02:45.380Z,100110.97
2019-02-07T19:05:18.170Z,100114.20
2019-02-07T19:07:46.667Z,100120.36
2019-02-07T19:10:17.219Z,100126.58
2019-02-07T19:12:45.848Z,100133.62
2019-02-07T19:15:18.595Z,100129.59
2019-02-07T19:17:47.572Z,100134.14
2019-02-07T19:20:18.120Z,100130.55
2019-02-07T19:22:46.812Z,100129.06
2019-02-07T19:25:16.708Z,100135.59
2019-02-07T19:27:45.204Z,100129.77
2019-02-07T19:30:20.524Z,100134.91
2019-02-07T19:32:49.101Z,100136.81
2019-02-07T19:35:17.513Z,100140.56
2019-02-07T19:37:45.927Z,100143.81
2019-02-07T19:40:16.821Z,100142.27
2019-02-07T19:42:45.356Z,100150.20
2019-02-07T19:45:16.916Z,100150.78
2019-02-07T19:47:45.539Z,100156.13
2019-02-07T19:50:17.841Z,100155.95
2019-02-07T19:52:46.606Z,100158.39
2019-02-07T19:55:16.359Z,100162.66
2019-02-07T19:57:45.230Z,100149.28
2019-02-07T20:00:19.743Z,100157.82
2019-02-07T20:02:49.040Z,100158.55
2019-02-07T20:05:17.701Z,100163.05
2019-02-07T20:07:46.976Z,100163.36
2019-02-07T20:10:17.447Z,100156.93
2019-02-07T20:12:47.186Z,100160.30
2019-02-07T20:15:19.855Z,100163.23
2019-02-07T20:17:48.205Z,100168.82
2019-02-07T20:20:17.142Z,100166.76
2019-02-07T20:22:47.927Z,100160.28
2019-02-07T20:25:18.350Z,100170.40
2019-02-07T20:27:46.856Z,100162.93
2019-02-07T20:30:18.698Z,100168.83
2019-02-07T20:32:47.184Z,100161.83
2019-02-07T20:35:15.890Z,100164.56
2019-02-07T20:37:44.267Z,100167.66
2019-02-07T20:40:17.138Z,100167.47
2019-02-07T20:42:46.580Z,100168.98
2019-02-07T20:45:15.494Z,100173.80
2019-02-07T20:47:44.312Z,100166.17
2019-02-07T20:50:18.089Z,100171.30
2019-02-07T20:52:46.827Z,100166.39
2019-02-07T20:55:15.679Z,100163.13
2019-02-07T20:57:44.029Z,100172.25
2019-02-07T21:00:19.164Z,100166.11
2019-02-07T21:02:47.743Z,100174.41
2019-02-07T21:05:16.878Z,100179.75
2019-02-07T21:07:45.396Z,100172.00
2019-02-07T21:10:16.740Z,100180.48
2019-02-07T21:12:45.152Z,100175.86
2019-02-07T21:15:18.801Z,100169.10
2019-02-07T21:17:47.240Z,100175.73
2019-02-07T21:20:18.122Z,100189.64
2019-02-07T21:22:46.609Z,100198.28
2019-02-07T21:25:16.421Z,100191.80
2019-02-07T21:27:44.839Z,100192.48
2019-02-07T21:30:17.621Z,100202.87
2019-02-07T21:32:46.534Z,100201.37
2019-02-07T21:35:17.652Z,100201.22
2019-02-07T21:37:46.232Z,100205.84
2019-02-07T21:40:17.894Z,100204.11
2019-02-07T21:42:46.426Z,100203.31
2019-02-07T21:45:16.759Z,100214.11
2019-02-07T21:47:45.244Z,100221.17
2019-02-07T21:50:15.890Z,100227.83
2019-02-07T21:52:44.260Z,100225.53
2019-02-07T21:55:15.332Z,100233.33
2019-02-07T21:57:43.923Z,100250.27
2019-02-07T22:00:17.178Z,100253.42
2019-02-07T22:02:45.759Z,100256.72
2019-02-07T22:05:16.016Z,100274.47
2019-02-07T22:07:44.490Z,100284.35
2019-02-07T22:10:15.863Z,100281.41
2019-02-07T22:12:44.710Z,100289.00
2019-02-07T22:15:20.072Z,100294.70
2019-02-07T22:17:50.042Z,100292.72
2019-02-07T22:20:21.695Z,100294.13
2019-02-07T22:22:50.271Z,100300.62
2019-02-07T22:25:20.834Z,100297.48
2019-02-07T22:27:49.178Z,100296.23
2019-02-07T22:30:18.901Z,100295.66
2019-02-07T22:32:47.584Z,100302.67
2019-02-07T22:35:16.549Z,100311.88
2019-02-07T22:37:45.047Z,100305.00
2019-02-07T22:40:16.477Z,100308.46
2019-02-07T22:42:48.053Z,100302.02
2019-02-07T22:45:17.983Z,100309.75
2019-02-07T22:47:46.941Z,100313.95
2019-02-07T22:50:17.065Z,100317.78
2019-02-07T22:52:45.484Z,100316.00
2019-02-07T22:55:15.076Z,100311.45
2019-02-07T22:57:43.499Z,100316.63
2019-02-07T23:00:18.386Z,100319.31
2019-02-07T23:02:46.808Z,100331.66
2019-02-07T23:05:15.157Z,100330.67
2019-02-07T23:07:43.573Z,100333.44
2019-02-07T23:10:12.780Z,100326.80
2019-02-07T23:12:41.170Z,100326.22
2019-02-07T23:15:09.918Z,100326.14
2019-02-07T23:17:38.708Z,100324.79
2019-02-07T23:20:10.115Z,100328.70
2019-02-07T23:22:38.412Z,100324.73
2019-02-07T23:25:08.758Z,100327.70
2019-02-07T23:27:37.202Z,100336.73
2019-02-07T23:30:10.735Z,100334.42
2019-02-07T23:32:39.154Z,100331.09
2019-02-07T23:35:09.264Z,100332.17
2019-02-07T23:37:37.561Z,100335.05
2019-02-07T23:40:10.925Z,100334.64
2019-02-07T23:42:39.317Z,100327.30
2019-02-07T23:45:11.223Z,100320.94
2019-02-07T23:47:39.574Z,100330.13
2019-02-07T23:50:10.340Z,100327.30
2019-02-07T23:52:38.703Z,100328.68
2019-02-07T23:55:11.686Z,100325.31
2019-02-07T23:57:40.114Z,100322.27
